Time;durP1;ratioP1;P1;durP2;ratioP2;P2;SDS_P1;SDS_P2;PMS_P1;PMS_P2;Temp;Humidity;BMP_temperature;BMP_pressure;BME280_temperature;BME280_humidity;BME280_pressure;Samples;Min_cycle;Max_cycle;Signal;HPM_P1;HPM_P2
2022/05/08 00:02:17;;;;;;;34.13;7.33;;;;;;;-145.18;100.00;60484.78;5033413;28;20033;-68
2022/05/08 00:04:43;;;;;;;36.67;8.13;;;;;;;-145.18;100.00;60484.78;5032710;28;20036;-68
2022/05/08 00:07:08;;;;;;;35.20;8.53;;;;;;;-145.18;100.00;60484.78;5033544;28;20600;-68
2022/05/08 00:09:34;;;;;;;41.63;8.87;;;;;;;-145.18;100.00;60484.78;5038115;28;20022;-68
2022/05/08 00:11:59;;;;;;;33.30;7.90;;;;;;;-145.18;100.00;60484.78;5035080;28;20409;-68
2022/05/08 00:14:25;;;;;;;39.70;8.87;;;;;;;-145.18;100.00;60484.78;5040001;28;20504;-68
2022/05/08 00:16:50;;;;;;;40.53;8.50;;;;;;;-145.18;100.00;60484.78;5039289;28;20031;-68
2022/05/08 00:19:16;;;;;;;42.60;8.60;;;;;;;-145.18;100.00;60484.78;5041843;28;20112;-68
2022/05/08 00:21:42;;;;;;;36.87;8.80;;;;;;;-145.18;100.00;60484.78;5039466;28;20033;-68
2022/05/08 00:24:08;;;;;;;45.10;10.07;;;;;;;-145.18;100.00;60484.78;5041354;28;20182;-68
2022/05/08 00:26:33;;;;;;;42.13;9.70;;;;;;;-145.18;100.00;60484.78;5044009;28;20036;-68
2022/05/08 00:28:58;;;;;;;49.50;9.70;;;;;;;-145.18;100.00;60484.78;5042968;28;20021;-68
2022/05/08 00:31:24;;;;;;;47.57;10.50;;;;;;;-145.18;100.00;60484.78;5038808;28;20462;-68
2022/05/08 00:33:50;;;;;;;45.03;9.37;;;;;;;-145.18;100.00;60484.78;5033182;28;20039;-68
2022/05/08 00:36:16;;;;;;;50.77;11.23;;;;;;;-145.18;100.00;60484.78;5037092;28;20029;-68
2022/05/08 00:38:41;;;;;;;48.83;11.23;;;;;;;-145.18;100.00;60484.78;5034473;28;20025;-68
2022/05/08 00:41:08;;;;;;;51.43;11.50;;;;;;;-145.18;100.00;60484.78;5028172;28;20446;-68
2022/05/08 00:43:36;;;;;;;48.23;10.97;;;;;;;-145.18;100.00;60484.78;5028019;28;20040;-68
2022/05/08 00:46:07;;;;;;;48.23;11.90;;;;;;;-145.18;100.00;60484.78;5029428;28;20034;-68
2022/05/08 00:48:34;;;;;;;47.00;12.20;;;;;;;-145.18;100.00;60484.78;5034561;28;20029;-68
2022/05/08 00:51:02;;;;;;;47.77;12.23;;;;;;;-145.18;100.00;60484.78;5046671;28;20067;-68
2022/05/08 00:53:33;;;;;;;59.60;14.33;;;;;;;-145.18;100.00;60484.78;5039935;28;20043;-68
2022/05/08 00:56:00;;;;;;;64.75;12.80;;;;;;;-145.18;100.00;60484.78;5040534;28;20028;-68
2022/05/08 00:58:26;;;;;;;54.83;12.73;;;;;;;-145.18;100.00;60484.78;5040782;28;20036;-68
2022/05/08 01:00:51;;;;;;;54.70;14.17;;;;;;;-145.18;100.00;60484.78;5039969;28;20461;-68
2022/05/08 01:03:17;;;;;;;56.80;14.27;;;;;;;-145.18;100.00;60484.78;5037971;28;20056;-68
2022/05/08 01:05:42;;;;;;;56.73;15.07;;;;;;;-145.18;100.00;60484.78;5038482;28;20028;-68
2022/05/08 01:08:09;;;;;;;54.03;12.93;;;;;;;-145.18;100.00;60484.78;5041843;28;20032;-68
2022/05/08 01:10:37;;;;;;;59.60;14.43;;;;;;;-145.18;100.00;60484.78;5041446;28;20044;-68
2022/05/08 01:13:03;;;;;;;48.67;13.90;;;;;;;-145.18;100.00;60484.78;5031030;28;20108;-68
2022/05/08 01:15:29;;;;;;;62.67;14.97;;;;;;;-145.18;100.00;60484.78;5032743;28;20029;-68
2022/05/08 01:17:54;;;;;;;49.90;14.13;;;;;;;-145.18;100.00;60484.78;5039869;28;20406;-68
2022/05/08 01:20:20;;;;;;;56.37;14.17;;;;;;;-145.18;100.00;60484.78;5041355;28;20024;-68
2022/05/08 01:22:45;;;;;;;60.03;14.97;;;;;;;-145.18;100.00;60484.78;5039429;28;21860;-68
2022/05/08 01:25:11;;;;;;;64.13;15.63;;;;;;;-145.18;100.00;60484.78;5039483;28;20047;-68
2022/05/08 01:27:36;;;;;;;58.87;14.43;;;;;;;-145.18;100.00;60484.78;5033496;28;20028;-68
2022/05/08 01:30:08;;;;;;;60.33;14.63;;;;;;;-145.18;100.00;60484.78;5042031;28;20017;-68
2022/05/08 01:32:34;;;;;;;;;;;;;;;-145.18;100.00;60484.78;5045013;28;20104;-68
2022/05/08 01:34:59;;;;;;;53.90;14.70;;;;;;;-145.18;100.00;60484.78;5038277;28;20007;-68
2022/05/08 01:37:24;;;;;;;69.37;16.17;;;;;;;-145.18;100.00;60484.78;5035753;28;20061;-67
2022/05/08 01:39:50;;;;;;;54.80;16.27;;;;;;;-145.18;100.00;60484.78;5026815;28;21294;-67
2022/05/08 01:42:15;;;;;;;66.73;17.10;;;;;;;-145.18;100.00;60484.78;5027984;28;20052;-67
2022/05/08 01:44:42;;;;;;;68.77;16.07;;;;;;;-145.18;100.00;60484.78;5027250;28;20025;-67
2022/05/08 01:49:51;;;;;;;65.30;15.93;;;;;;;-145.18;100.00;60484.78;5044647;28;20124;-67
2022/05/08 01:52:16;;;;;;;59.43;15.93;;;;;;;-145.18;100.00;60484.78;5042213;28;20755;-67
2022/05/08 01:54:41;;;;;;;58.03;16.57;;;;;;;-145.18;100.00;60484.78;5037853;28;20406;-67
2022/05/08 01:57:07;;;;;;;73.67;16.60;;;;;;;-145.18;100.00;60484.78;5033121;28;20037;-67
2022/05/08 01:59:32;;;;;;;64.53;17.27;;;;;;;-145.18;100.00;60484.78;5033196;28;20032;-67
2022/05/08 02:01:58;;;;;;;60.73;17.70;;;;;;;-145.18;100.00;60484.78;5037865;28;20622;-67
2022/05/08 02:04:23;;;;;;;75.90;17.70;;;;;;;-145.18;100.00;60484.78;5036669;28;20499;-67
2022/05/08 02:06:50;;;;;;;68.80;17.97;;;;;;;-145.18;100.00;60484.78;5042690;28;20009;-67
2022/05/08 02:09:15;;;;;;;75.57;18.70;;;;;;;-145.18;100.00;60484.78;5048133;28;20084;-67
2022/05/08 02:11:41;;;;;;;57.23;17.97;;;;;;;-145.18;100.00;60484.78;5034117;28;20474;-67
2022/05/08 02:14:06;;;;;;;72.37;17.03;;;;;;;-145.18;100.00;60484.78;5035971;28;20453;-67
2022/05/08 02:16:32;;;;;;;63.87;16.23;;;;;;;-145.18;100.00;60484.78;5035649;28;20033;-67
2022/05/08 02:18:57;;;;;;;64.50;16.73;;;;;;;-145.18;100.00;60484.78;5033779;28;20021;-67
2022/05/08 02:21:23;;;;;;;75.17;17.67;;;;;;;-145.18;100.00;60484.78;5040320;28;20049;-67
2022/05/08 02:23:49;;;;;;;73.17;18.13;;;;;;;-145.18;100.00;60484.78;5030923;28;20029;-67
2022/05/08 02:26:14;;;;;;;78.20;18.30;;;;;;;-145.18;100.00;60484.78;5032225;28;20018;-67
2022/05/08 02:28:39;;;;;;;71.50;17.20;;;;;;;-145.18;100.00;60484.78;5029478;28;20362;-67
2022/05/08 02:31:05;;;;;;;71.17;16.43;;;;;;;-145.18;100.00;60484.78;5035600;28;20025;-67
2022/05/08 02:33:31;;;;;;;71.60;16.00;;;;;;;-145.18;100.00;60484.78;5042369;28;20029;-67
2022/05/08 02:35:56;;;;;;;61.13;15.37;;;;;;;-145.18;100.00;60484.78;5036158;28;20840;-67
2022/05/08 02:38:21;;;;;;;53.30;14.77;;;;;;;-145.18;100.00;60484.78;5044139;28;20025;-67
2022/05/08 02:40:47;;;;;;;65.60;15.87;;;;;;;-145.18;100.00;60484.78;5038937;28;20436;-67
2022/05/08 02:43:14;;;;;;;82.70;16.73;;;;;;;-145.18;100.00;60484.78;5028676;28;20033;-67
2022/05/08 02:45:40;;;;;;;57.03;15.80;;;;;;;-145.18;100.00;60484.78;5031618;28;20025;-67
2022/05/08 02:48:07;;;;;;;64.23;16.73;;;;;;;-145.18;100.00;60484.78;5028059;28;20606;-67
2022/05/08 02:50:33;;;;;;;67.47;16.30;;;;;;;-145.18;100.00;60484.78;5025842;28;20033;-68
2022/05/08 02:52:58;;;;;;;56.53;16.97;;;;;;;-145.18;100.00;60484.78;5026884;28;20025;-68
2022/05/08 03:00:51;;;;;;;63.27;16.47;;;;;;;-145.18;100.00;60484.78;5037117;28;20060;-67
2022/05/08 03:03:17;;;;;;;69.87;17.10;;;;;;;-145.18;100.00;60484.78;5029465;28;20045;-67
2022/05/08 03:05:45;;;;;;;67.27;16.60;;;;;;;-145.18;100.00;60484.78;5038957;28;20040;-67
2022/05/08 03:08:11;;;;;;;66.43;16.30;;;;;;;-145.18;100.00;60484.78;5034955;28;20041;-67
2022/05/08 03:13:21;;;;;;;68.67;16.03;;;;;;;-145.18;100.00;60484.78;5045314;28;20040;-67
2022/05/08 03:15:47;;;;;;;59.37;15.60;;;;;;;-145.18;100.00;60484.78;5038616;28;20472;-68
2022/05/08 03:18:14;;;;;;;57.63;15.80;;;;;;;-145.18;100.00;60484.78;5052390;28;20036;-68
2022/05/08 03:20:40;;;;;;;68.10;15.83;;;;;;;-145.18;100.00;60484.78;5043725;28;20032;-67
2022/05/08 03:23:06;;;;;;;95.87;17.93;;;;;;;-145.18;100.00;60484.78;5052924;28;20457;-68
2022/05/08 03:25:31;;;;;;;67.70;16.73;;;;;;;-145.18;100.00;60484.78;5040976;28;20040;-67
2022/05/08 03:27:56;;;;;;;72.97;17.00;;;;;;;-145.18;100.00;60484.78;5032430;28;20035;-67
2022/05/08 03:30:24;;;;;;;73.60;17.23;;;;;;;-145.18;100.00;60484.78;5034239;28;20879;-67
2022/05/08 03:32:49;;;;;;;72.17;17.33;;;;;;;-145.18;100.00;60484.78;5039919;28;20029;-67
2022/05/08 03:35:15;;;;;;;75.47;17.80;;;;;;;-145.18;100.00;60484.78;5047915;28;20393;-67
2022/05/08 03:37:40;;;;;;;64.77;16.93;;;;;;;-145.18;100.00;60484.78;5045802;28;20396;-68
2022/05/08 03:40:06;;;;;;;75.27;19.03;;;;;;;-145.18;100.00;60484.78;5053054;28;20048;-68
2022/05/08 03:42:31;;;;;;;67.97;18.90;;;;;;;-145.18;100.00;60484.78;5039498;28;20040;-68
2022/05/08 03:44:57;;;;;;;67.67;17.93;;;;;;;-145.18;100.00;60484.78;5038382;28;20029;-68
2022/05/08 03:47:23;;;;;;;69.07;17.30;;;;;;;-145.18;100.00;60484.78;5038668;28;20099;-68
2022/05/08 03:49:48;;;;;;;73.60;18.43;;;;;;;-145.18;100.00;60484.78;5028114;28;20056;-67
2022/05/08 03:52:14;;;;;;;79.00;19.97;;;;;;;-145.18;100.00;60484.78;5033503;28;20036;-68
2022/05/08 03:54:40;;;;;;;68.50;19.20;;;;;;;-145.18;100.00;60484.78;5035369;28;20043;-68
2022/05/08 03:57:05;;;;;;;66.33;18.67;;;;;;;-145.18;100.00;60484.78;5037108;28;20025;-68
2022/05/08 03:59:31;;;;;;;71.47;19.17;;;;;;;-145.18;100.00;60484.78;5031976;28;20116;-67
2022/05/08 04:01:56;;;;;;;73.70;20.03;;;;;;;-145.18;100.00;60484.78;5034553;28;20116;-67
2022/05/08 04:04:21;;;;;;;59.43;17.07;;;;;;;-145.18;100.00;60484.78;5027962;28;20037;-68
2022/05/08 04:06:47;;;;;;;65.20;16.97;;;;;;;-145.18;100.00;60484.78;5042468;28;20083;-67
2022/05/08 04:09:12;;;;;;;57.33;18.33;;;;;;;-145.18;100.00;60484.78;5037335;28;20033;-68
2022/05/08 04:11:37;;;;;;;56.30;16.07;;;;;;;-145.18;100.00;60484.78;5043837;28;20107;-68
2022/05/08 04:14:03;;;;;;;65.33;16.17;;;;;;;-145.18;100.00;60484.78;5038928;28;20037;-67
2022/05/08 04:16:28;;;;;;;59.67;17.70;;;;;;;-145.18;100.00;60484.78;5040141;28;20044;-67
2022/05/08 04:18:54;;;;;;;58.83;16.53;;;;;;;-145.18;100.00;60484.78;5034767;28;20052;-68
2022/05/08 04:21:19;;;;;;;51.30;15.90;;;;;;;-145.18;100.00;60484.78;5041865;28;20064;-67
2022/05/08 04:26:30;;;;;;;54.53;14.90;;;;;;;6.00;100.00;148962.78;5041186;28;20592;-68
2022/05/08 04:28:56;;;;;;;46.60;13.40;;;;;;;6.63;100.00;149124.06;5037896;28;20099;-68
2022/05/08 04:31:22;;;;;;;34.87;10.17;;;;;;;7.26;100.00;149282.88;5031990;28;20100;-68
2022/05/08 04:33:47;;;;;;;34.40;9.77;;;;;;;7.72;100.00;149399.16;5036495;28;20532;-68
2022/05/08 04:36:13;;;;;;;27.57;8.37;;;;;;;8.14;100.00;149507.72;5037515;28;20032;-67
2022/05/08 04:38:39;;;;;;;29.37;8.57;;;;;;;8.52;100.00;149603.44;5043081;28;20044;-68
2022/05/08 04:41:04;;;;;;;28.23;7.70;;;;;;;9.00;100.00;149725.00;5041346;28;20044;-68
2022/05/08 04:43:30;;;;;;;26.23;7.23;;;;;;;9.50;100.00;149851.78;5031064;28;20032;-68
2022/05/08 04:45:55;;;;;;;31.40;7.13;;;;;;;9.78;100.00;149924.25;5036455;28;20025;-68
2022/05/08 04:48:20;;;;;;;18.10;5.67;;;;;;;10.45;100.00;150095.22;5027336;28;20021;-68
2022/05/08 04:50:46;;;;;;;17.03;5.53;;;;;;;10.76;100.00;150172.91;5029817;28;20021;-68
2022/05/08 04:53:11;;;;;;;15.97;5.40;;;;;;;10.83;100.00;144420.28;5031954;28;20057;-68
2022/05/08 04:55:36;;;;;;;21.23;5.43;;;;;;;10.88;100.00;121451.28;5044966;28;20457;-68
2022/05/08 04:58:02;;;;;;;15.67;5.37;;;;;;;11.20;100.00;86638.81;5031132;28;20527;-68
2022/05/08 05:00:28;;;;;;;17.63;5.10;;;;;;;-145.18;100.00;60484.78;5033489;28;20080;-68
2022/05/08 05:02:53;;;;;;;20.67;4.57;;;;;;;-145.18;100.00;60484.78;5029073;28;20033;-68
2022/05/08 05:05:19;;;;;;;15.67;5.47;;;;;;;-145.18;100.00;60484.78;5042020;28;20495;-68
2022/05/08 05:07:44;;;;;;;21.73;4.67;;;;;;;-145.18;100.00;60484.78;5032487;28;20045;-68
2022/05/08 05:10:11;;;;;;;21.73;5.30;;;;;;;13.09;100.00;-19507.28;5040862;28;20029;-68
2022/05/08 05:12:37;;;;;;;14.77;4.50;;;;;;;13.39;100.00;-19515.16;5045402;28;20511;-68
2022/05/08 05:15:05;;;;;;;21.37;5.30;;;;;;;13.76;100.00;-19524.72;5040737;28;20037;-68
2022/05/08 05:17:30;;;;;;;13.10;4.27;;;;;;;13.48;100.00;-19517.38;5031740;28;20057;-68
2022/05/08 05:19:55;;;;;;;15.27;4.00;;;;;;;14.38;100.00;-19540.72;5037679;28;20072;-68
2022/05/08 05:22:22;;;;;;;11.57;3.83;;;;;;;14.55;100.00;-19544.91;5042614;28;20072;-68
2022/05/08 05:24:48;;;;;;;14.77;3.60;;;;;;;14.62;100.00;-19546.88;5037365;28;20035;-68
2022/05/08 05:27:13;;;;;;;11.47;3.50;;;;;;;14.81;100.00;-19551.59;5042229;28;20060;-68
2022/05/08 05:29:38;;;;;;;16.83;4.20;;;;;;;14.90;100.00;-19553.94;5037425;28;20025;-68
2022/05/08 05:32:04;;;;;;;17.17;4.27;;;;;;;15.62;100.00;-19572.38;5036628;28;20032;-68
2022/05/08 05:34:30;;;;;;;12.23;3.83;;;;;;;15.69;100.00;-19574.34;5036436;28;20021;-68
2022/05/08 05:36:55;;;;;;;17.15;4.32;;;;;;;-145.18;100.00;60484.78;5039848;28;20075;-68
2022/05/08 05:39:21;;;;;;;15.90;3.75;;;;;;;16.04;100.00;-19583.25;5036999;28;20112;-68
2022/05/08 05:41:47;;;;;;;14.73;3.65;;;;;;;15.96;100.00;-19581.16;5044746;28;20036;-68
2022/05/08 05:44:12;;;;;;;14.90;3.13;;;;;;;15.69;100.00;-19574.34;5044528;28;20041;-68
2022/05/08 05:49:21;;;;;;;17.95;3.33;;;;;;;16.71;100.00;-19600.50;5038953;28;20066;-68
2022/05/08 05:51:46;;;;;;;11.63;3.33;;;;;;;-145.18;100.00;60484.78;5043012;28;20032;-68
2022/05/08 05:54:12;;;;;;;19.10;3.88;;;;;;;-145.18;100.00;60484.78;5036372;28;20033;-68
2022/05/08 05:56:37;;;;;;;11.57;2.80;;;;;;;-145.18;100.00;60484.78;5042337;28;20029;-68
2022/05/08 05:59:03;;;;;;;11.32;3.05;;;;;;;-145.18;100.00;60484.78;5048363;28;20028;-68
2022/05/08 06:01:28;;;;;;;13.07;3.30;;;;;;;-145.18;100.00;60484.78;5043516;28;20115;-68
2022/05/08 06:03:53;;;;;;;12.52;3.00;;;;;;;-145.18;100.00;60484.78;5043127;28;20029;-68
2022/05/08 06:06:19;;;;;;;11.25;2.80;;;;;;;-145.18;100.00;60484.78;5037283;28;20028;-68
2022/05/08 06:08:44;;;;;;;9.52;3.00;;;;;;;-145.18;100.00;60484.78;5042643;28;20070;-68
2022/05/08 06:11:10;;;;;;;11.45;3.03;;;;;;;18.12;100.00;-19636.78;5043690;28;20024;-68
2022/05/08 06:13:35;;;;;;;12.45;2.78;;;;;;;18.52;100.00;-19646.94;5029411;28;20025;-68
2022/05/08 06:16:00;;;;;;;10.98;2.72;;;;;;;18.00;100.00;-19633.66;5031578;28;20132;-68
2022/05/08 06:18:26;;;;;;;13.68;2.53;;;;;;;17.87;100.00;-19630.25;5030850;28;20216;-68
2022/05/08 06:20:53;;;;;;;9.05;2.30;;;;;;;18.06;100.00;-19635.22;5034005;28;20036;-68
2022/05/08 06:23:19;;;;;;;12.80;2.42;;;;;;;19.28;100.00;-19666.47;5035048;28;20044;-68
2022/05/08 06:25:44;;;;;;;9.93;2.58;;;;;;;18.81;100.00;-19654.25;5036345;28;20024;-68
2022/05/08 06:28:09;;;;;;;9.25;2.08;;;;;;;18.88;100.00;-19656.06;5028897;28;21674;-68
2022/05/08 06:30:35;;;;;;;11.95;2.40;;;;;;;19.74;93.87;-19678.19;5043455;28;20143;-68
2022/05/08 06:33:00;;;;;;;9.80;2.00;;;;;;;18.89;76.79;-19656.31;5037388;28;20745;-67
2022/05/08 06:35:26;;;;;;;9.35;2.10;;;;;;;19.63;93.08;-19675.34;5037296;28;20025;-67
2022/05/08 06:37:51;;;;;;;10.63;1.75;;;;;;;19.38;88.28;-19668.81;5034160;28;20021;-67
2022/05/08 06:40:17;;;;;;;9.68;2.00;;;;;;;19.47;82.94;-19671.16;5033080;28;20064;-67
2022/05/08 06:42:43;;;;;;;11.13;2.13;;;;;;;19.95;88.76;-19683.41;5031744;28;20060;-68
2022/05/08 06:45:09;;;;;;;9.82;2.08;;;;;;;19.74;88.71;-19678.06;5042037;28;20465;-68
2022/05/08 06:47:34;;;;;;;9.57;2.00;;;;;;;19.04;89.72;-19660.22;5031424;28;20083;-67
2022/05/08 06:50:00;;;;;;;7.72;1.83;;;;;;;19.80;94.15;-19679.75;5027757;28;20095;-67
2022/05/08 06:52:25;;;;;;;9.70;1.80;;;;;;;19.17;83.55;-19663.63;5029432;28;20515;-67
2022/05/08 06:54:50;;;;;;;10.52;2.08;;;;;;;18.85;87.70;-19655.28;5039212;28;20065;-67
2022/05/08 06:57:16;;;;;;;6.93;1.92;;;;;;;18.44;100.00;-19644.84;5036860;28;20333;-68
2022/05/08 07:02:25;;;;;;;8.27;1.60;;;;;;;15.75;100.00;-19575.94;5039825;28;20044;-68
2022/05/08 07:04:51;;;;;;;10.32;2.22;;;;;;;14.84;100.00;-19552.38;5033883;28;20022;-67
2022/05/08 07:07:16;;;;;;;13.52;2.03;;;;;;;-145.18;100.00;60484.78;5032374;28;20052;-67
2022/05/08 07:09:42;;;;;;;15.07;2.35;;;;;;;-145.18;100.00;60484.78;5035892;28;20107;-67
2022/05/08 07:12:08;;;;;;;11.48;2.25;;;;;;;-145.18;100.00;60484.78;5039327;28;20040;-67
2022/05/08 07:14:40;;;;;;;9.88;2.30;;;;;;;-145.18;100.00;60484.78;5038377;28;20033;-67
2022/05/08 07:17:05;;;;;;;12.60;2.38;;;;;;;-145.18;100.00;60484.78;5037203;28;20086;-67
2022/05/08 07:19:30;;;;;;;9.85;2.05;;;;;;;17.47;100.00;-19620.06;5040995;28;20129;-67
2022/05/08 07:21:56;;;;;;;13.50;2.20;;;;;;;18.58;85.90;-19648.38;5034858;28;20067;-67
2022/05/08 07:24:21;;;;;;;8.30;2.13;;;;;;;18.70;74.99;-19651.63;5038354;28;20099;-67
2022/05/08 07:26:47;;;;;;;11.48;2.22;;;;;;;19.12;72.27;-19662.19;5031126;28;20029;-67
2022/05/08 07:29:13;;;;;;;7.63;1.60;;;;;;;19.86;69.20;-19681.31;5036818;28;20569;-67
2022/05/08 07:31:38;;;;;;;12.25;2.13;;;;;;;19.29;72.62;-19666.63;5036488;28;20043;-67
2022/05/08 07:36:48;;;;;;;10.85;2.30;;;;;;;16.66;100.00;-19599.19;5049874;28;20071;-67
2022/05/08 07:39:13;;;;;;;11.45;2.38;;;;;;;16.75;100.00;-19601.53;5048872;28;20060;-68
2022/05/08 07:41:39;;;;;;;9.68;2.30;;;;;;;16.42;100.00;-19593.19;5044376;28;20033;-67
2022/05/08 07:44:04;;;;;;;12.27;2.65;;;;;;;13.81;100.00;-19525.91;5029783;28;20049;-67
2022/05/08 07:46:30;;;;;;;9.60;2.22;;;;;;;13.12;100.00;-19508.06;5047696;28;20029;-67
2022/05/08 07:48:55;;;;;;;13.10;2.58;;;;;;;12.72;100.00;-19497.81;5030781;28;20052;-67
2022/05/08 07:51:21;;;;;;;12.90;2.28;;;;;;;12.75;100.00;-19498.63;5031179;28;20060;-67
2022/05/08 07:53:46;;;;;;;9.10;2.00;;;;;;;13.16;100.00;-19509.09;5029969;28;20170;-67
2022/05/08 07:56:11;;;;;;;13.70;2.40;;;;;;;15.03;100.00;-19557.34;5029903;28;20041;-67
2022/05/08 07:58:37;;;;;;;10.40;2.20;;;;;;;17.64;100.00;-19624.38;5025892;28;20041;-67
2022/05/08 08:01:03;;;;;;;10.80;2.35;;;;;;;17.43;100.00;-19619.03;5027438;28;20120;-68
2022/05/08 08:03:30;;;;;;;9.68;2.17;;;;;;;16.84;100.00;-19603.91;5034058;28;20064;-68
2022/05/08 08:05:56;;;;;;;8.98;2.10;;;;;;;15.83;100.00;-19578.00;5044537;28;20426;-68
2022/05/08 08:08:25;;;;;;;11.13;2.22;;;;;;;15.67;100.00;-19573.84;5037255;28;20033;-68
2022/05/08 08:10:56;;;;;;;12.77;2.40;;;;;;;14.89;100.00;-19553.69;5032664;28;20072;-68
2022/05/08 08:13:23;;;;;;;18.80;2.50;;;;;;;15.96;100.00;-19581.16;5032109;28;20033;-68
2022/05/08 08:15:49;;;;;;;10.82;2.20;;;;;;;16.28;100.00;-19589.38;5038889;28;20029;-68
2022/05/08 08:18:15;;;;;;;14.90;2.00;;;;;;;17.36;100.00;-19617.06;5035924;28;20036;-68
2022/05/08 08:20:41;;;;;;;10.18;2.15;;;;;;;19.32;81.91;-19667.53;5044955;28;20033;-67
2022/05/08 08:23:07;;;;;;;10.60;2.28;;;;;;;-145.18;100.00;60484.78;5041723;28;20033;-67
2022/05/08 08:25:33;;;;;;;11.65;2.00;;;;;;;21.41;61.21;-19720.81;5034166;28;20025;-67
2022/05/08 08:27:59;;;;;;;8.30;2.03;;;;;;;21.83;61.33;-19731.47;5032474;28;20029;-67
2022/05/08 08:30:24;;;;;;;11.02;1.95;;;;;;;22.29;62.17;-19743.16;5037419;28;20033;-67
2022/05/08 08:32:49;;;;;;;10.35;1.60;;;;;;;20.10;65.46;-19687.31;5045351;28;20548;-67
2022/05/08 08:35:15;;;;;;;11.20;1.98;;;;;;;21.33;66.23;-19718.88;5036944;28;20033;-67
2022/05/08 08:37:40;;;;;;;9.02;1.90;;;;;;;22.66;53.28;-19752.59;5036402;28;20078;-67
2022/05/08 08:40:06;;;;;;;11.48;2.05;;;;;;;21.69;51.61;-19727.84;5052215;28;20389;-67
2022/05/08 08:42:32;;;;;;;6.53;1.63;;;;;;;21.53;55.81;-19723.81;5042551;28;20087;-67
2022/05/08 08:47:51;;;;;;;9.38;1.80;;;;;;;23.43;47.14;-19772.28;5042287;28;20131;-67
2022/05/08 08:50:18;;;;;;;5.85;1.60;;;;;;;22.62;47.68;-19751.69;5040897;28;20082;-68
2022/05/08 08:52:45;;;;;;;9.20;1.70;;;;;;;23.51;47.06;-19774.25;5044650;28;20076;-68
2022/05/08 08:55:11;;;;;;;8.20;1.77;;;;;;;23.70;45.07;-19779.03;5034619;28;20111;-68
2022/05/08 08:57:37;;;;;;;7.25;1.73;;;;;;;22.58;44.58;-19750.66;5032386;28;20025;-68
2022/05/08 09:00:05;;;;;;;14.23;1.83;;;;;;;22.05;55.87;-19737.19;5034438;28;20428;-68
2022/05/08 09:02:31;;;;;;;7.18;1.88;;;;;;;22.15;49.65;-19739.78;5031376;28;20041;-68
2022/05/08 09:04:58;;;;;;;11.43;2.10;;;;;;;20.81;55.13;-19705.50;5037267;28;20394;-67
2022/05/08 09:07:43;;;;;;;9.20;1.90;;;;;;;21.98;52.58;-19735.34;5047019;28;20469;-67
2022/05/08 09:10:22;;;;;;;7.90;1.77;;;;;;;22.50;50.95;-19748.59;5033974;28;20025;-67
2022/05/08 09:12:54;;;;;;;13.52;2.05;;;;;;;21.83;48.03;-19731.47;5042683;28;20029;-67
2022/05/08 09:15:19;;;;;;;8.05;1.58;;;;;;;21.20;52.14;-19715.38;5028583;28;20022;-67
2022/05/08 09:17:46;;;;;;;5.88;1.77;;;;;;;22.37;48.36;-19745.22;5031321;28;20064;-67
2022/05/08 09:20:30;;;;;;;11.35;1.90;;;;;;;22.75;49.13;-19755.06;5032924;28;20049;-68
2022/05/08 09:23:09;;;;;;;7.50;1.90;;;;;;;22.27;50.15;-19742.63;5028461;28;20033;-67
2022/05/08 09:25:40;;;;;;;7.47;1.80;;;;;;;22.94;50.35;-19759.75;5032206;28;20044;-68
2022/05/08 09:28:06;;;;;;;7.10;1.60;;;;;;;24.01;43.78;-19786.91;5028380;28;20022;-68
2022/05/08 09:30:31;;;;;;;10.32;1.80;;;;;;;23.88;42.33;-19783.69;5044889;28;20025;-68
2022/05/08 09:32:57;;;;;;;11.90;2.08;;;;;;;22.43;51.58;-19746.91;5053099;28;20039;-68
2022/05/08 09:35:22;;;;;;;7.72;2.03;;;;;;;22.95;48.05;-19760.00;5046130;28;20032;-68
2022/05/08 09:37:52;;;;;;;7.47;1.75;;;;;;;22.86;44.18;-19757.66;5036842;28;20486;-68
2022/05/08 09:40:19;;;;;;;9.07;2.10;;;;;;;21.35;48.74;-19719.28;5037777;28;20056;-67
2022/05/08 09:42:46;;;;;;;9.90;1.70;;;;;;;22.80;50.83;-19756.38;5033394;28;20437;-68
2022/05/08 09:45:12;;;;;;;8.18;1.80;;;;;;;22.58;43.17;-19750.66;5037867;28;20028;-68
2022/05/08 09:47:48;;;;;;;6.80;1.80;;;;;;;22.02;44.26;-19736.25;5043049;28;20090;-68
2022/05/08 09:50:16;;;;;;;6.03;1.55;;;;;;;22.18;44.32;-19740.44;5045571;28;20112;-68
2022/05/08 09:52:43;;;;;;;7.03;1.80;;;;;;;22.49;41.43;-19748.31;5042219;28;20028;-68
2022/05/08 09:55:10;;;;;;;8.93;1.92;;;;;;;20.19;46.74;-19689.66;5035114;28;20381;-68
2022/05/08 09:57:36;;;;;;;10.70;1.88;;;;;;;20.53;56.51;-19698.22;5049816;28;20031;-68
2022/05/08 10:00:06;;;;;;;9.52;2.00;;;;;;;19.65;58.42;-19675.84;5037105;28;20503;-68
2022/05/08 10:02:32;;;;;;;7.78;2.08;;;;;;;18.76;58.11;-19653.06;5036320;28;20560;-67
2022/05/08 10:04:58;;;;;;;11.27;1.80;;;;;;;21.10;64.25;-19712.78;5032809;28;20029;-68
2022/05/08 10:07:24;;;;;;;10.38;1.90;;;;;;;20.61;51.07;-19700.31;5045460;28;20028;-68
2022/05/08 10:15:34;;;;;;;8.05;2.00;;;;;;;22.43;48.44;-19746.78;5036859;28;20036;-68
2022/05/08 10:18:28;;;;;;;7.57;1.83;;;;;;;22.30;44.05;-19743.41;5040961;28;20083;-68
2022/05/08 10:21:08;;;;;;;7.63;1.60;;;;;;;22.64;46.19;-19752.22;5050777;28;20032;-68
2022/05/08 10:23:39;;;;;;;8.25;2.10;;;;;;;21.35;50.71;-19719.28;5037618;28;20032;-68
2022/05/08 10:26:19;;;;;;;7.28;1.80;;;;;;;21.07;42.84;-19712.25;5049948;28;20104;-68
2022/05/08 10:29:03;;;;;;;8.75;2.10;;;;;;;23.11;44.59;-19764.13;5045059;28;20021;-68
2022/05/08 10:31:54;;;;;;;8.70;1.85;;;;;;;22.32;45.03;-19743.94;5030982;28;20551;-68
2022/05/08 10:34:34;;;;;;;10.43;1.90;;;;;;;22.50;44.49;-19748.59;5039350;28;20032;-68
2022/05/08 10:37:14;;;;;;;12.55;2.13;;;;;;;21.50;44.46;-19723.16;5047879;28;20052;-68
2022/05/08 10:39:47;;;;;;;6.63;1.70;;;;;;;22.92;44.66;-19759.22;5050524;28;20063;-68
2022/05/08 10:42:27;;;;;;;7.35;1.80;;;;;;;21.58;44.48;-19725.25;5031557;28;20505;-68
2022/05/08 10:44:53;;;;;;;8.05;1.70;;;;;;;21.98;44.80;-19735.34;5032660;28;20041;-68
2022/05/08 10:47:34;;;;;;;7.93;1.60;;;;;;;23.13;44.56;-19764.66;5041716;28;20045;-68
2022/05/08 10:50:00;;;;;;;8.18;1.60;;;;;;;22.30;43.04;-19743.41;5033799;28;20043;-68
2022/05/08 10:52:26;;;;;;;8.77;1.80;;;;;;;20.91;48.17;-19708.09;5049234;28;20350;-68
2022/05/08 10:54:58;;;;;;;7.32;1.63;;;;;;;21.62;43.06;-19726.28;5035013;28;20029;-68
2022/05/08 10:57:37;;;;;;;10.20;2.10;;;;;;;22.58;43.11;-19750.66;5041858;28;20371;-68
2022/05/08 11:00:07;;;;;;;9.05;1.80;;;;;;;22.98;40.85;-19760.91;5034520;28;20052;-69
2022/05/08 11:02:43;;;;;;;7.07;1.50;;;;;;;21.09;45.35;-19712.53;5033913;28;20052;-69
2022/05/08 11:05:10;;;;;;;8.32;1.95;;;;;;;22.21;44.66;-19741.34;5037089;28;20044;-69
2022/05/08 11:07:37;;;;;;;8.30;2.10;;;;;;;21.30;47.72;-19717.97;5046265;28;20017;-68
2022/05/08 11:10:14;;;;;;;8.50;1.90;;;;;;;21.74;43.43;-19729.13;5047604;28;20024;-69
2022/05/08 11:13:03;;;;;;;8.65;1.98;;;;;;;21.62;43.05;-19726.28;5037623;28;20037;-68
2022/05/08 11:15:36;;;;;;;7.32;1.70;;;;;;;22.07;43.69;-19737.69;5037275;28;20037;-68
2022/05/08 11:18:15;;;;;;;7.50;1.75;;;;;;;22.89;41.61;-19758.44;5036791;28;20057;-69
2022/05/08 11:20:53;;;;;;;7.80;1.65;;;;;;;22.84;41.72;-19757.16;5044359;28;20096;-69
2022/05/08 11:23:26;;;;;;;8.15;1.80;;;;;;;22.17;38.21;-19740.28;5044161;28;20028;-69
2022/05/08 11:25:53;;;;;;;10.35;1.83;;;;;;;21.85;39.73;-19732.13;5042978;28;20025;-69
2022/05/08 11:28:20;;;;;;;6.22;1.60;;;;;;;21.88;42.52;-19732.75;5039169;28;20025;-69
2022/05/08 11:30:50;;;;;;;8.32;1.60;;;;;;;23.29;39.04;-19768.81;5040112;28;20052;-69
2022/05/08 11:36:04;;;;;;;9.65;1.73;;;;;;;22.91;37.56;-19759.09;5034651;28;20088;-69
2022/05/08 11:39:00;;;;;;;7.75;1.67;;;;;;;22.45;38.32;-19747.28;5038048;28;20071;-69
2022/05/08 11:41:27;;;;;;;9.18;1.98;;;;;;;21.73;39.95;-19729.00;5037106;28;20490;-69
2022/05/08 11:43:55;;;;;;;8.20;1.92;;;;;;;21.33;39.43;-19718.75;5033705;28;20113;-69